sensor_id;sensor_type;location;lat;lon;timestamp;temperature;humidity
11577;DHT22;5844;51.496;6.788;2022-11-15T00:01:37;10.60;99.90
11577;DHT22;5844;51.496;6.788;2022-11-15T00:04:04;10.60;99.90
11577;DHT22;5844;51.496;6.788;2022-11-15T00:06:30;10.60;99.90
11577;DHT22;5844;51.496;6.788;2022-11-15T00:08:59;10.60;99.90
11577;DHT22;5844;51.496;6.788;2022-11-15T00:11:25;10.70;99.90
11577;DHT22;5844;51.496;6.788;2022-11-15T00:13:55;10.80;99.90
11577;DHT22;5844;51.496;6.788;2022-11-15T00:16:20;10.80;99.90
11577;DHT22;5844;51.496;6.788;2022-11-15T00:18:46;10.80;99.90
11577;DHT22;5844;51.496;6.788;2022-11-15T00:21:12;11.00;99.90
11577;DHT22;5844;51.496;6.788;2022-11-15T00:23:39;11.10;99.90
11577;DHT22;5844;51.496;6.788;2022-11-15T00:26:05;11.10;99.90
11577;DHT22;5844;51.496;6.788;2022-11-15T00:28:31;11.30;99.90
11577;DHT22;5844;51.496;6.788;2022-11-15T00:31:01;11.30;99.90
11577;DHT22;5844;51.496;6.788;2022-11-15T00:33:27;11.30;99.90
11577;DHT22;5844;51.496;6.788;2022-11-15T00:35:53;11.40;99.90
11577;DHT22;5844;51.496;6.788;2022-11-15T00:38:18;11.30;99.90
11577;DHT22;5844;51.496;6.788;2022-11-15T00:40:44;11.30;99.90
11577;DHT22;5844;51.496;6.788;2022-11-15T00:43:09;11.40;99.90
11577;DHT22;5844;51.496;6.788;2022-11-15T00:45:35;11.40;99.90
11577;DHT22;5844;51.496;6.788;2022-11-15T00:48:01;11.40;99.90
11577;DHT22;5844;51.496;6.788;2022-11-15T00:50:26;11.40;99.90
11577;DHT22;5844;51.496;6.788;2022-11-15T00:52:52;11.40;99.90
11577;DHT22;5844;51.496;6.788;2022-11-15T00:55:18;11.40;99.90
11577;DHT22;5844;51.496;6.788;2022-11-15T00:57:44;11.50;99.90
11577;DHT22;5844;51.496;6.788;2022-11-15T01:00:11;11.50;99.90
11577;DHT22;5844;51.496;6.788;2022-11-15T01:02:37;11.40;99.90
11577;DHT22;5844;51.496;6.788;2022-11-15T01:05:03;11.40;99.90
11577;DHT22;5844;51.496;6.788;2022-11-15T01:07:28;11.50;99.90
11577;DHT22;5844;51.496;6.788;2022-11-15T01:09:54;11.50;99.90
11577;DHT22;5844;51.496;6.788;2022-11-15T01:12:20;11.60;99.90
11577;DHT22;5844;51.496;6.788;2022-11-15T01:14:45;11.60;99.90
11577;DHT22;5844;51.496;6.788;2022-11-15T01:17:11;13.20;99.90
11577;DHT22;5844;51.496;6.788;2022-11-15T01:19:36;11.70;99.90
11577;DHT22;5844;51.496;6.788;2022-11-15T01:22:02;11.70;99.90
11577;DHT22;5844;51.496;6.788;2022-11-15T01:24:28;11.80;99.90
11577;DHT22;5844;51.496;6.788;2022-11-15T01:26:53;11.70;99.90
11577;DHT22;5844;51.496;6.788;2022-11-15T01:29:19;11.80;99.90
11577;DHT22;5844;51.496;6.788;2022-11-15T01:31:45;11.80;99.90
11577;DHT22;5844;51.496;6.788;2022-11-15T01:34:12;11.90;99.90
11577;DHT22;5844;51.496;6.788;2022-11-15T01:36:38;11.80;99.90
11577;DHT22;5844;51.496;6.788;2022-11-15T01:39:03;11.90;99.90
11577;DHT22;5844;51.496;6.788;2022-11-15T01:41:31;11.90;99.90
11577;DHT22;5844;51.496;6.788;2022-11-15T01:47:16;11.90;99.90
11577;DHT22;5844;51.496;6.788;2022-11-15T01:52:19;12.00;99.90
11577;DHT22;5844;51.496;6.788;2022-11-15T01:54:48;12.00;99.90
11577;DHT22;5844;51.496;6.788;2022-11-15T01:57:15;12.10;99.90
11577;DHT22;5844;51.496;6.788;2022-11-15T01:59:43;12.10;99.90
11577;DHT22;5844;51.496;6.788;2022-11-15T02:02:10;12.10;99.90
11577;DHT22;5844;51.496;6.788;2022-11-15T02:04:44;12.00;99.90
11577;DHT22;5844;51.496;6.788;2022-11-15T02:07:12;12.00;99.90
11577;DHT22;5844;51.496;6.788;2022-11-15T02:09:39;11.90;99.90
11577;DHT22;5844;51.496;6.788;2022-11-15T02:12:06;11.90;99.90
11577;DHT22;5844;51.496;6.788;2022-11-15T02:14:34;11.80;99.90
11577;DHT22;5844;51.496;6.788;2022-11-15T02:20:39;11.90;99.90
11577;DHT22;5844;51.496;6.788;2022-11-15T02:32:14;12.20;99.90
11577;DHT22;5844;51.496;6.788;2022-11-15T02:34:52;12.20;99.90
11577;DHT22;5844;51.496;6.788;2022-11-15T02:42:35;12.40;99.90
11577;DHT22;5844;51.496;6.788;2022-11-15T02:45:33;12.40;99.90
11577;DHT22;5844;51.496;6.788;2022-11-15T02:48:01;12.40;99.90
11577;DHT22;5844;51.496;6.788;2022-11-15T02:50:30;12.50;99.90
11577;DHT22;5844;51.496;6.788;2022-11-15T02:52:57;12.50;99.90
11577;DHT22;5844;51.496;6.788;2022-11-15T02:55:31;12.40;99.90
11577;DHT22;5844;51.496;6.788;2022-11-15T03:00:35;12.50;99.90
11577;DHT22;5844;51.496;6.788;2022-11-15T03:06:09;12.50;99.90
11577;DHT22;5844;51.496;6.788;2022-11-15T03:11:36;12.60;99.90
11577;DHT22;5844;51.496;6.788;2022-11-15T03:14:28;12.60;99.90
11577;DHT22;5844;51.496;6.788;2022-11-15T03:16:58;12.60;99.90
11577;DHT22;5844;51.496;6.788;2022-11-15T03:19:39;12.60;99.90
11577;DHT22;5844;51.496;6.788;2022-11-15T03:22:11;12.60;99.90
11577;DHT22;5844;51.496;6.788;2022-11-15T03:24:38;12.60;99.90
11577;DHT22;5844;51.496;6.788;2022-11-15T03:27:07;12.60;99.90
11577;DHT22;5844;51.496;6.788;2022-11-15T03:29:36;12.60;99.90
11577;DHT22;5844;51.496;6.788;2022-11-15T03:32:25;12.60;99.90
11577;DHT22;5844;51.496;6.788;2022-11-15T03:34:58;12.60;99.90
11577;DHT22;5844;51.496;6.788;2022-11-15T03:40:16;12.70;99.90
11577;DHT22;5844;51.496;6.788;2022-11-15T03:43:05;12.70;99.90
11577;DHT22;5844;51.496;6.788;2022-11-15T03:45:44;12.80;99.90
11577;DHT22;5844;51.496;6.788;2022-11-15T03:48:18;12.80;99.90
11577;DHT22;5844;51.496;6.788;2022-11-15T03:50:45;12.80;99.90
11577;DHT22;5844;51.496;6.788;2022-11-15T03:53:13;12.70;99.90
11577;DHT22;5844;51.496;6.788;2022-11-15T03:55:39;12.80;99.90
11577;DHT22;5844;51.496;6.788;2022-11-15T03:58:04;12.80;99.90
11577;DHT22;5844;51.496;6.788;2022-11-15T04:00:30;12.80;99.90
11577;DHT22;5844;51.496;6.788;2022-11-15T04:02:56;12.80;99.90
11577;DHT22;5844;51.496;6.788;2022-11-15T04:05:22;12.90;99.90
11577;DHT22;5844;51.496;6.788;2022-11-15T04:07:47;12.90;99.90
11577;DHT22;5844;51.496;6.788;2022-11-15T04:10:13;12.90;99.90
11577;DHT22;5844;51.496;6.788;2022-11-15T04:12:42;12.90;99.90
11577;DHT22;5844;51.496;6.788;2022-11-15T04:15:12;12.90;99.90
11577;DHT22;5844;51.496;6.788;2022-11-15T04:22:58;12.90;99.90
11577;DHT22;5844;51.496;6.788;2022-11-15T04:25:43;12.90;99.90
11577;DHT22;5844;51.496;6.788;2022-11-15T04:28:10;12.90;99.90
11577;DHT22;5844;51.496;6.788;2022-11-15T04:30:35;12.90;99.90
11577;DHT22;5844;51.496;6.788;2022-11-15T04:33:01;12.90;99.90
11577;DHT22;5844;51.496;6.788;2022-11-15T04:35:27;12.90;99.90
11577;DHT22;5844;51.496;6.788;2022-11-15T04:37:53;13.00;99.90
11577;DHT22;5844;51.496;6.788;2022-11-15T04:40:19;13.00;99.90
11577;DHT22;5844;51.496;6.788;2022-11-15T04:42:44;13.10;99.90
11577;DHT22;5844;51.496;6.788;2022-11-15T04:45:10;13.10;99.90
11577;DHT22;5844;51.496;6.788;2022-11-15T04:47:36;13.00;99.90
11577;DHT22;5844;51.496;6.788;2022-11-15T04:50:02;13.10;99.90
11577;DHT22;5844;51.496;6.788;2022-11-15T04:52:28;13.20;99.90
11577;DHT22;5844;51.496;6.788;2022-11-15T04:54:54;13.20;99.90
11577;DHT22;5844;51.496;6.788;2022-11-15T04:57:19;13.20;99.90
11577;DHT22;5844;51.496;6.788;2022-11-15T04:59:45;13.20;99.90
11577;DHT22;5844;51.496;6.788;2022-11-15T05:02:11;13.20;99.90
11577;DHT22;5844;51.496;6.788;2022-11-15T05:04:36;13.30;99.90
11577;DHT22;5844;51.496;6.788;2022-11-15T05:07:02;13.30;99.90
11577;DHT22;5844;51.496;6.788;2022-11-15T05:09:29;13.30;99.90
11577;DHT22;5844;51.496;6.788;2022-11-15T05:11:55;13.20;99.90
11577;DHT22;5844;51.496;6.788;2022-11-15T05:14:21;13.20;99.90
11577;DHT22;5844;51.496;6.788;2022-11-15T05:16:46;13.20;99.90
11577;DHT22;5844;51.496;6.788;2022-11-15T05:19:12;13.20;99.90
11577;DHT22;5844;51.496;6.788;2022-11-15T05:21:38;13.20;99.90
11577;DHT22;5844;51.496;6.788;2022-11-15T05:24:04;13.20;99.90
11577;DHT22;5844;51.496;6.788;2022-11-15T05:26:30;13.20;99.90
11577;DHT22;5844;51.496;6.788;2022-11-15T05:28:58;13.20;99.90
11577;DHT22;5844;51.496;6.788;2022-11-15T05:31:25;13.20;99.90
11577;DHT22;5844;51.496;6.788;2022-11-15T05:33:52;13.20;99.90
11577;DHT22;5844;51.496;6.788;2022-11-15T05:38:53;13.20;99.90
11577;DHT22;5844;51.496;6.788;2022-11-15T05:41:22;13.20;99.90
11577;DHT22;5844;51.496;6.788;2022-11-15T05:43:50;13.20;99.90
11577;DHT22;5844;51.496;6.788;2022-11-15T05:46:17;13.10;99.90
11577;DHT22;5844;51.496;6.788;2022-11-15T05:48:46;13.20;99.90
11577;DHT22;5844;51.496;6.788;2022-11-15T05:51:14;13.10;99.90
11577;DHT22;5844;51.496;6.788;2022-11-15T05:53:41;13.20;99.90
11577;DHT22;5844;51.496;6.788;2022-11-15T05:56:07;13.10;99.90
11577;DHT22;5844;51.496;6.788;2022-11-15T05:58:34;13.10;99.90
11577;DHT22;5844;51.496;6.788;2022-11-15T06:01:00;13.00;99.90
11577;DHT22;5844;51.496;6.788;2022-11-15T06:03:26;13.00;99.90
11577;DHT22;5844;51.496;6.788;2022-11-15T06:05:52;13.00;99.90
11577;DHT22;5844;51.496;6.788;2022-11-15T06:08:17;12.90;99.90
11577;DHT22;5844;51.496;6.788;2022-11-15T06:10:43;13.00;99.90
11577;DHT22;5844;51.496;6.788;2022-11-15T06:13:08;13.00;99.90
11577;DHT22;5844;51.496;6.788;2022-11-15T06:15:34;13.00;99.90
11577;DHT22;5844;51.496;6.788;2022-11-15T06:18:00;13.00;99.90
11577;DHT22;5844;51.496;6.788;2022-11-15T06:20:27;12.90;99.90
11577;DHT22;5844;51.496;6.788;2022-11-15T06:23:00;12.90;99.90
11577;DHT22;5844;51.496;6.788;2022-11-15T06:25:29;12.90;99.90
11577;DHT22;5844;51.496;6.788;2022-11-15T06:27:56;12.80;99.90
11577;DHT22;5844;51.496;6.788;2022-11-15T06:30:24;12.80;99.90
11577;DHT22;5844;51.496;6.788;2022-11-15T06:32:50;12.80;99.90
11577;DHT22;5844;51.496;6.788;2022-11-15T06:35:16;12.80;99.90
11577;DHT22;5844;51.496;6.788;2022-11-15T06:37:42;12.90;99.90
11577;DHT22;5844;51.496;6.788;2022-11-15T06:40:09;12.90;99.90
11577;DHT22;5844;51.496;6.788;2022-11-15T06:42:35;12.90;99.90
11577;DHT22;5844;51.496;6.788;2022-11-15T06:45:00;12.90;99.90
11577;DHT22;5844;51.496;6.788;2022-11-15T06:47:26;12.90;99.90
11577;DHT22;5844;51.496;6.788;2022-11-15T06:49:52;12.80;99.90
11577;DHT22;5844;51.496;6.788;2022-11-15T06:52:18;12.80;99.90
11577;DHT22;5844;51.496;6.788;2022-11-15T06:54:44;12.80;99.90
11577;DHT22;5844;51.496;6.788;2022-11-15T06:57:10;12.90;99.90
11577;DHT22;5844;51.496;6.788;2022-11-15T06:59:36;12.90;99.90
11577;DHT22;5844;51.496;6.788;2022-11-15T07:02:02;12.90;99.90
11577;DHT22;5844;51.496;6.788;2022-11-15T07:04:28;12.80;99.90
11577;DHT22;5844;51.496;6.788;2022-11-15T07:06:53;12.80;99.90
11577;DHT22;5844;51.496;6.788;2022-11-15T07:09:19;12.80;99.90
11577;DHT22;5844;51.496;6.788;2022-11-15T07:11:44;12.80;99.90
11577;DHT22;5844;51.496;6.788;2022-11-15T07:14:10;12.70;99.90
11577;DHT22;5844;51.496;6.788;2022-11-15T07:16:36;12.70;99.90
11577;DHT22;5844;51.496;6.788;2022-11-15T07:19:02;12.70;99.90
11577;DHT22;5844;51.496;6.788;2022-11-15T07:21:28;12.70;99.90
11577;DHT22;5844;51.496;6.788;2022-11-15T07:23:54;12.70;99.90
11577;DHT22;5844;51.496;6.788;2022-11-15T07:26:20;12.80;99.90
11577;DHT22;5844;51.496;6.788;2022-11-15T07:28:45;12.80;99.90
11577;DHT22;5844;51.496;6.788;2022-11-15T07:31:11;12.80;99.90
11577;DHT22;5844;51.496;6.788;2022-11-15T07:33:37;12.80;99.90
11577;DHT22;5844;51.496;6.788;2022-11-15T07:36:04;12.90;99.90
11577;DHT22;5844;51.496;6.788;2022-11-15T07:38:33;12.90;99.90
11577;DHT22;5844;51.496;6.788;2022-11-15T07:41:02;13.00;99.90
11577;DHT22;5844;51.496;6.788;2022-11-15T07:43:28;12.90;99.90
11577;DHT22;5844;51.496;6.788;2022-11-15T07:45:55;13.00;99.90
11577;DHT22;5844;51.496;6.788;2022-11-15T07:48:21;13.00;99.90
11577;DHT22;5844;51.496;6.788;2022-11-15T07:50:46;13.10;99.90
11577;DHT22;5844;51.496;6.788;2022-11-15T07:53:12;13.10;99.90
11577;DHT22;5844;51.496;6.788;2022-11-15T07:55:40;13.10;99.90
11577;DHT22;5844;51.496;6.788;2022-11-15T07:58:09;13.10;99.90
11577;DHT22;5844;51.496;6.788;2022-11-15T08:00:35;13.00;99.90
11577;DHT22;5844;51.496;6.788;2022-11-15T08:03:08;12.90;99.90
11577;DHT22;5844;51.496;6.788;2022-11-15T08:05:35;12.80;99.90
11577;DHT22;5844;51.496;6.788;2022-11-15T08:08:01;12.70;99.90
11577;DHT22;5844;51.496;6.788;2022-11-15T08:10:27;12.70;99.90
11577;DHT22;5844;51.496;6.788;2022-11-15T08:13:00;12.50;99.90
11577;DHT22;5844;51.496;6.788;2022-11-15T08:15:26;12.30;99.90
11577;DHT22;5844;51.496;6.788;2022-11-15T08:17:54;12.20;99.90
11577;DHT22;5844;51.496;6.788;2022-11-15T08:20:20;12.00;99.90
11577;DHT22;5844;51.496;6.788;2022-11-15T08:22:45;11.70;99.90
11577;DHT22;5844;51.496;6.788;2022-11-15T08:25:11;11.50;99.90
11577;DHT22;5844;51.496;6.788;2022-11-15T08:27:37;11.50;99.90
11577;DHT22;5844;51.496;6.788;2022-11-15T08:30:02;11.50;99.90
11577;DHT22;5844;51.496;6.788;2022-11-15T08:32:29;11.40;99.90
11577;DHT22;5844;51.496;6.788;2022-11-15T08:34:55;11.40;99.90
11577;DHT22;5844;51.496;6.788;2022-11-15T08:37:21;11.40;99.90
11577;DHT22;5844;51.496;6.788;2022-11-15T08:39:46;11.30;99.90
11577;DHT22;5844;51.496;6.788;2022-11-15T08:42:12;11.40;99.90
11577;DHT22;5844;51.496;6.788;2022-11-15T08:44:38;11.40;99.90
11577;DHT22;5844;51.496;6.788;2022-11-15T08:47:04;11.50;99.90
11577;DHT22;5844;51.496;6.788;2022-11-15T08:49:30;11.60;99.90
11577;DHT22;5844;51.496;6.788;2022-11-15T08:51:55;11.70;99.90
11577;DHT22;5844;51.496;6.788;2022-11-15T08:54:21;11.70;99.90
11577;DHT22;5844;51.496;6.788;2022-11-15T08:56:46;11.70;99.90
11577;DHT22;5844;51.496;6.788;2022-11-15T08:59:12;11.70;99.90
11577;DHT22;5844;51.496;6.788;2022-11-15T09:01:38;11.70;99.90
11577;DHT22;5844;51.496;6.788;2022-11-15T09:04:03;11.70;99.90
11577;DHT22;5844;51.496;6.788;2022-11-15T09:06:30;11.70;99.90
11577;DHT22;5844;51.496;6.788;2022-11-15T09:08:56;11.80;99.90
11577;DHT22;5844;51.496;6.788;2022-11-15T09:11:22;11.80;99.90
11577;DHT22;5844;51.496;6.788;2022-11-15T09:13:49;11.80;99.90
11577;DHT22;5844;51.496;6.788;2022-11-15T09:16:14;11.80;99.90
11577;DHT22;5844;51.496;6.788;2022-11-15T09:18:41;11.80;99.90
11577;DHT22;5844;51.496;6.788;2022-11-15T09:21:07;11.80;99.90
11577;DHT22;5844;51.496;6.788;2022-11-15T09:23:33;11.80;99.90
11577;DHT22;5844;51.496;6.788;2022-11-15T09:26:01;11.90;99.90
11577;DHT22;5844;51.496;6.788;2022-11-15T09:28:28;12.10;99.90
11577;DHT22;5844;51.496;6.788;2022-11-15T09:30:58;12.20;99.90
11577;DHT22;5844;51.496;6.788;2022-11-15T09:33:25;12.40;99.90
11577;DHT22;5844;51.496;6.788;2022-11-15T09:35:51;12.50;99.90
11577;DHT22;5844;51.496;6.788;2022-11-15T09:38:17;12.70;99.90
11577;DHT22;5844;51.496;6.788;2022-11-15T09:40:42;12.80;99.90
11577;DHT22;5844;51.496;6.788;2022-11-15T09:51:18;13.60;99.90
11577;DHT22;5844;51.496;6.788;2022-11-15T09:53:57;13.80;99.90
11577;DHT22;5844;51.496;6.788;2022-11-15T09:56:27;13.90;99.90
11577;DHT22;5844;51.496;6.788;2022-11-15T10:04:21;14.30;99.90
11577;DHT22;5844;51.496;6.788;2022-11-15T10:07:14;14.20;99.90
11577;DHT22;5844;51.496;6.788;2022-11-15T10:10:15;14.00;99.90
11577;DHT22;5844;51.496;6.788;2022-11-15T10:12:47;14.00;99.90
11577;DHT22;5844;51.496;6.788;2022-11-15T10:15:16;13.90;99.90
11577;DHT22;5844;51.496;6.788;2022-11-15T10:20:28;14.00;99.90
11577;DHT22;5844;51.496;6.788;2022-11-15T10:23:00;14.00;99.90
11577;DHT22;5844;51.496;6.788;2022-11-15T10:25:28;14.30;99.90
11577;DHT22;5844;51.496;6.788;2022-11-15T10:30:35;14.70;92.50
11577;DHT22;5844;51.496;6.788;2022-11-15T10:35:37;14.90;1.00
11577;DHT22;5844;51.496;6.788;2022-11-15T10:38:10;15.20;1.00
11577;DHT22;5844;51.496;6.788;2022-11-15T10:40:37;15.70;1.00
11577;DHT22;5844;51.496;6.788;2022-11-15T10:43:13;16.00;1.00
11577;DHT22;5844;51.496;6.788;2022-11-15T10:45:39;16.30;1.00
11577;DHT22;5844;51.496;6.788;2022-11-15T10:50:44;17.80;99.90
11577;DHT22;5844;51.496;6.788;2022-11-15T10:53:18;17.60;99.90
11577;DHT22;5844;51.496;6.788;2022-11-15T10:55:50;17.50;99.90
11577;DHT22;5844;51.496;6.788;2022-11-15T10:58:34;18.00;1.00
11577;DHT22;5844;51.496;6.788;2022-11-15T11:01:22;17.90;1.00
11577;DHT22;5844;51.496;6.788;2022-11-15T11:04:04;17.60;1.00
11577;DHT22;5844;51.496;6.788;2022-11-15T11:06:31;17.60;1.00
11577;DHT22;5844;51.496;6.788;2022-11-15T11:09:23;17.30;1.00
11577;DHT22;5844;51.496;6.788;2022-11-15T11:11:51;17.50;1.00
11577;DHT22;5844;51.496;6.788;2022-11-15T11:14:21;18.30;1.00
11577;DHT22;5844;51.496;6.788;2022-11-15T11:16:53;18.80;1.00
11577;DHT22;5844;51.496;6.788;2022-11-15T11:27:40;19.80;99.90
11577;DHT22;5844;51.496;6.788;2022-11-15T11:33:10;19.40;1.00
11577;DHT22;5844;51.496;6.788;2022-11-15T11:35:50;19.60;1.00
11577;DHT22;5844;51.496;6.788;2022-11-15T11:39:02;17.30;2.90
11577;DHT22;5844;51.496;6.788;2022-11-15T11:41:51;19.30;99.90
11577;DHT22;5844;51.496;6.788;2022-11-15T11:44:48;19.10;1.00
11577;DHT22;5844;51.496;6.788;2022-11-15T11:49:53;19.00;1.00
11577;DHT22;5844;51.496;6.788;2022-11-15T11:52:31;18.20;1.00
11577;DHT22;5844;51.496;6.788;2022-11-15T11:55:21;18.00;1.00
11577;DHT22;5844;51.496;6.788;2022-11-15T11:57:51;17.80;1.00
11577;DHT22;5844;51.496;6.788;2022-11-15T12:00:19;17.40;1.00
11577;DHT22;5844;51.496;6.788;2022-11-15T12:05:43;17.80;1.00
11577;DHT22;5844;51.496;6.788;2022-11-15T12:10:46;18.80;1.00
11577;DHT22;5844;51.496;6.788;2022-11-15T12:13:16;18.50;1.00
11577;DHT22;5844;51.496;6.788;2022-11-15T12:16:02;18.00;1.00
11577;DHT22;5844;51.496;6.788;2022-11-15T12:18:30;18.20;1.00
11577;DHT22;5844;51.496;6.788;2022-11-15T12:20:57;18.40;99.90
11577;DHT22;5844;51.496;6.788;2022-11-15T12:23:39;18.40;99.90
11577;DHT22;5844;51.496;6.788;2022-11-15T12:26:16;18.90;99.90
11577;DHT22;5844;51.496;6.788;2022-11-15T12:29:02;19.30;1.00
11577;DHT22;5844;51.496;6.788;2022-11-15T12:36:44;18.70;99.90
11577;DHT22;5844;51.496;6.788;2022-11-15T12:39:11;18.40;99.90
11577;DHT22;5844;51.496;6.788;2022-11-15T12:41:39;18.10;99.90
11577;DHT22;5844;51.496;6.788;2022-11-15T12:44:11;17.80;99.90
11577;DHT22;5844;51.496;6.788;2022-11-15T12:59:52;19.20;99.90
11577;DHT22;5844;51.496;6.788;2022-11-15T13:02:42;19.50;1.00
11577;DHT22;5844;51.496;6.788;2022-11-15T13:17:42;17.20;1.00
11577;DHT22;5844;51.496;6.788;2022-11-15T13:23:01;17.10;1.00
11577;DHT22;5844;51.496;6.788;2022-11-15T13:33:17;16.40;1.00
11577;DHT22;5844;51.496;6.788;2022-11-15T13:35:47;16.30;10.60
11577;DHT22;5844;51.496;6.788;2022-11-15T13:38:53;16.20;1.00
11577;DHT22;5844;51.496;6.788;2022-11-15T13:41:18;16.20;1.00
11577;DHT22;5844;51.496;6.788;2022-11-15T13:43:46;16.10;99.90
11577;DHT22;5844;51.496;6.788;2022-11-15T13:48:38;15.80;99.90
11577;DHT22;5844;51.496;6.788;2022-11-15T13:51:09;15.80;99.90
11577;DHT22;5844;51.496;6.788;2022-11-15T13:53:39;15.80;99.90
11577;DHT22;5844;51.496;6.788;2022-11-15T13:56:06;15.70;99.90
11577;DHT22;5844;51.496;6.788;2022-11-15T13:58:32;15.70;99.90
11577;DHT22;5844;51.496;6.788;2022-11-15T14:01:01;15.70;64.00
11577;DHT22;5844;51.496;6.788;2022-11-15T14:03:33;15.60;99.90
11577;DHT22;5844;51.496;6.788;2022-11-15T14:06:14;15.70;44.80
11577;DHT22;5844;51.496;6.788;2022-11-15T14:08:42;15.80;99.90
11577;DHT22;5844;51.496;6.788;2022-11-15T14:11:22;15.80;99.90
11577;DHT22;5844;51.496;6.788;2022-11-15T14:16:37;15.80;1.00
11577;DHT22;5844;51.496;6.788;2022-11-15T14:19:06;15.80;99.90
11577;DHT22;5844;51.496;6.788;2022-11-15T14:21:32;15.80;9.10
11577;DHT22;5844;51.496;6.788;2022-11-15T14:24:17;15.70;26.40
11577;DHT22;5844;51.496;6.788;2022-11-15T14:26:44;15.60;99.90
11577;DHT22;5844;51.496;6.788;2022-11-15T14:29:29;15.50;99.90
11577;DHT22;5844;51.496;6.788;2022-11-15T14:32:15;15.40;99.90
11577;DHT22;5844;51.496;6.788;2022-11-15T14:34:41;15.40;94.10
11577;DHT22;5844;51.496;6.788;2022-11-15T14:37:21;15.30;99.90
11577;DHT22;5844;51.496;6.788;2022-11-15T14:39:48;15.20;99.90
11577;DHT22;5844;51.496;6.788;2022-11-15T14:42:13;15.00;99.90
11577;DHT22;5844;51.496;6.788;2022-11-15T14:44:39;14.90;99.90
11577;DHT22;5844;51.496;6.788;2022-11-15T14:47:04;14.80;99.90
11577;DHT22;5844;51.496;6.788;2022-11-15T14:49:30;14.70;99.90
11577;DHT22;5844;51.496;6.788;2022-11-15T14:51:56;14.60;99.90
11577;DHT22;5844;51.496;6.788;2022-11-15T14:54:21;14.50;1.00
11577;DHT22;5844;51.496;6.788;2022-11-15T14:56:47;14.40;99.90
11577;DHT22;5844;51.496;6.788;2022-11-15T14:59:12;14.40;1.00
11577;DHT22;5844;51.496;6.788;2022-11-15T15:01:38;14.40;1.00
11577;DHT22;5844;51.496;6.788;2022-11-15T15:04:04;14.30;1.00
11577;DHT22;5844;51.496;6.788;2022-11-15T15:06:29;14.30;1.00
11577;DHT22;5844;51.496;6.788;2022-11-15T15:08:56;14.30;1.00
11577;DHT22;5844;51.496;6.788;2022-11-15T15:11:24;14.30;1.00
11577;DHT22;5844;51.496;6.788;2022-11-15T15:13:51;14.20;1.00
11577;DHT22;5844;51.496;6.788;2022-11-15T15:16:17;14.20;1.00
11577;DHT22;5844;51.496;6.788;2022-11-15T15:18:43;14.20;1.00
11577;DHT22;5844;51.496;6.788;2022-11-15T15:21:28;14.10;1.00
11577;DHT22;5844;51.496;6.788;2022-11-15T15:23:54;14.20;1.00
11577;DHT22;5844;51.496;6.788;2022-11-15T15:26:20;14.10;1.00
11577;DHT22;5844;51.496;6.788;2022-11-15T15:28:46;14.00;1.00
11577;DHT22;5844;51.496;6.788;2022-11-15T15:31:13;14.00;1.00
11577;DHT22;5844;51.496;6.788;2022-11-15T15:33:39;14.00;1.00
11577;DHT22;5844;51.496;6.788;2022-11-15T15:36:11;14.00;1.00
11577;DHT22;5844;51.496;6.788;2022-11-15T15:38:38;14.00;1.00
11577;DHT22;5844;51.496;6.788;2022-11-15T15:41:11;14.00;1.00
11577;DHT22;5844;51.496;6.788;2022-11-15T15:43:37;13.90;1.00
11577;DHT22;5844;51.496;6.788;2022-11-15T15:46:03;13.90;1.00
11577;DHT22;5844;51.496;6.788;2022-11-15T15:48:28;13.90;1.00
11577;DHT22;5844;51.496;6.788;2022-11-15T15:50:54;13.80;1.00
11577;DHT22;5844;51.496;6.788;2022-11-15T15:53:20;13.80;1.00
11577;DHT22;5844;51.496;6.788;2022-11-15T15:55:45;13.90;1.00
11577;DHT22;5844;51.496;6.788;2022-11-15T15:58:11;13.90;1.00
11577;DHT22;5844;51.496;6.788;2022-11-15T16:00:37;13.80;1.00
11577;DHT22;5844;51.496;6.788;2022-11-15T16:03:03;13.70;1.00
11577;DHT22;5844;51.496;6.788;2022-11-15T16:05:29;13.80;1.00
11577;DHT22;5844;51.496;6.788;2022-11-15T16:07:54;13.70;1.00
11577;DHT22;5844;51.496;6.788;2022-11-15T16:10:26;13.70;1.00
11577;DHT22;5844;51.496;6.788;2022-11-15T16:12:52;13.70;1.00
11577;DHT22;5844;51.496;6.788;2022-11-15T16:15:19;13.70;1.00
11577;DHT22;5844;51.496;6.788;2022-11-15T16:17:51;13.70;1.00
11577;DHT22;5844;51.496;6.788;2022-11-15T16:20:37;13.70;1.00
11577;DHT22;5844;51.496;6.788;2022-11-15T16:23:06;13.70;1.00
11577;DHT22;5844;51.496;6.788;2022-11-15T16:25:53;13.80;1.00
11577;DHT22;5844;51.496;6.788;2022-11-15T16:28:23;13.80;1.00
11577;DHT22;5844;51.496;6.788;2022-11-15T16:30:58;13.70;1.00
11577;DHT22;5844;51.496;6.788;2022-11-15T16:33:25;13.70;1.00
11577;DHT22;5844;51.496;6.788;2022-11-15T16:35:50;13.70;1.00
11577;DHT22;5844;51.496;6.788;2022-11-15T16:38:16;13.80;1.00
11577;DHT22;5844;51.496;6.788;2022-11-15T16:40:42;13.80;1.00
11577;DHT22;5844;51.496;6.788;2022-11-15T16:43:08;13.80;1.00
11577;DHT22;5844;51.496;6.788;2022-11-15T16:45:34;13.80;1.00
11577;DHT22;5844;51.496;6.788;2022-11-15T16:48:00;13.80;1.00
11577;DHT22;5844;51.496;6.788;2022-11-15T16:50:32;13.80;1.00
11577;DHT22;5844;51.496;6.788;2022-11-15T16:53:00;13.80;1.00
11577;DHT22;5844;51.496;6.788;2022-11-15T16:55:27;13.80;1.00
11577;DHT22;5844;51.496;6.788;2022-11-15T16:57:54;13.80;1.00
11577;DHT22;5844;51.496;6.788;2022-11-15T17:00:20;13.80;1.00
11577;DHT22;5844;51.496;6.788;2022-11-15T17:02:47;13.80;1.00
11577;DHT22;5844;51.496;6.788;2022-11-15T17:05:15;13.80;1.00
11577;DHT22;5844;51.496;6.788;2022-11-15T17:07:41;13.80;1.00
11577;DHT22;5844;51.496;6.788;2022-11-15T17:10:10;13.80;1.00
11577;DHT22;5844;51.496;6.788;2022-11-15T17:12:36;13.80;1.00
11577;DHT22;5844;51.496;6.788;2022-11-15T17:15:03;13.80;1.00
11577;DHT22;5844;51.496;6.788;2022-11-15T17:17:29;13.90;1.00
11577;DHT22;5844;51.496;6.788;2022-11-15T17:19:55;13.90;1.00
11577;DHT22;5844;51.496;6.788;2022-11-15T17:22:20;13.90;1.00
11577;DHT22;5844;51.496;6.788;2022-11-15T17:24:46;13.90;1.00
11577;DHT22;5844;51.496;6.788;2022-11-15T17:27:12;13.90;1.00
11577;DHT22;5844;51.496;6.788;2022-11-15T17:29:37;13.90;1.00
11577;DHT22;5844;51.496;6.788;2022-11-15T17:32:03;13.90;1.00
11577;DHT22;5844;51.496;6.788;2022-11-15T17:34:29;13.90;1.00
11577;DHT22;5844;51.496;6.788;2022-11-15T17:36:54;14.00;1.00
11577;DHT22;5844;51.496;6.788;2022-11-15T17:39:20;14.00;1.00
11577;DHT22;5844;51.496;6.788;2022-11-15T17:41:48;14.00;1.00
11577;DHT22;5844;51.496;6.788;2022-11-15T17:44:13;14.10;1.00
11577;DHT22;5844;51.496;6.788;2022-11-15T17:46:39;14.10;1.00
11577;DHT22;5844;51.496;6.788;2022-11-15T17:49:05;14.10;1.00
11577;DHT22;5844;51.496;6.788;2022-11-15T17:51:31;14.10;1.00
11577;DHT22;5844;51.496;6.788;2022-11-15T17:53:57;14.10;1.00
11577;DHT22;5844;51.496;6.788;2022-11-15T17:56:25;14.10;1.00
11577;DHT22;5844;51.496;6.788;2022-11-15T17:58:55;14.20;1.00
11577;DHT22;5844;51.496;6.788;2022-11-15T18:01:31;14.20;1.00
11577;DHT22;5844;51.496;6.788;2022-11-15T18:03:58;14.20;1.00
11577;DHT22;5844;51.496;6.788;2022-11-15T18:06:25;14.20;1.00
11577;DHT22;5844;51.496;6.788;2022-11-15T18:08:53;14.20;1.00
11577;DHT22;5844;51.496;6.788;2022-11-15T18:11:30;14.20;1.00
11577;DHT22;5844;51.496;6.788;2022-11-15T18:13:59;14.20;1.00